Time;durP1;ratioP1;P1;durP2;ratioP2;P2;SDS_P1;SDS_P2;PMS_P1;PMS_P2;Temp;Humidity;BMP_temperature;BMP_pressure;BME280_temperature;BME280_humidity;BME280_pressure;Samples;Min_cycle;Max_cycle;Signal;HPM_P1;HPM_P2
2022/09/30 00:02:16;;;;;;;1.50;1.40;;;7.00;99.90;6.50;99779.00;;;;5006532;28;109588;-56
2022/09/30 00:04:42;;;;;;;2.10;1.90;;;6.70;99.90;6.60;99775.00;;;;4999311;28;108149;-59
2022/09/30 00:07:07;;;;;;;2.00;1.57;;;6.60;99.90;6.60;99775.00;;;;5017084;28;107378;-56
2022/09/30 00:09:33;;;;;;;1.30;1.20;;;6.70;99.90;6.60;99779.00;;;;4997928;28;116996;-58
2022/09/30 00:11:59;;;;;;;3.50;1.63;;;6.70;99.90;6.60;99776.00;;;;4995999;28;107009;-57
2022/09/30 00:14:24;;;;;;;2.00;1.77;;;6.70;99.90;6.70;99765.00;;;;4997873;28;110673;-58
2022/09/30 00:16:50;;;;;;;2.03;1.40;;;6.70;99.90;6.70;99764.00;;;;4999519;28;87283;-59
2022/09/30 00:19:16;;;;;;;1.90;1.60;;;6.80;99.90;6.70;99762.00;;;;5008436;28;87369;-54
2022/09/30 00:21:42;;;;;;;1.73;1.63;;;7.30;99.90;6.70;99758.00;;;;5008833;28;115012;-59
2022/09/30 00:24:08;;;;;;;2.10;1.67;;;6.80;99.90;6.70;99759.00;;;;5000803;28;86974;-59
2022/09/30 00:26:34;;;;;;;1.83;1.73;;;6.80;99.90;6.80;99759.00;;;;5000408;28;107968;-58
2022/09/30 00:29:01;;;;;;;2.10;1.77;;;6.90;99.90;6.70;99755.00;;;;4996490;28;118116;-58
2022/09/30 00:31:31;;;;;;;4.03;1.70;;;6.80;99.90;6.70;99759.00;;;;4997856;28;89576;-58
2022/09/30 00:34:06;;;;;;;1.90;1.70;;;7.00;99.90;6.70;99769.00;;;;5007419;28;86995;-59
2022/09/30 00:36:42;;;;;;;2.67;2.20;;;6.80;99.90;6.70;99770.00;;;;5007238;28;86913;-56
2022/09/30 00:39:17;;;;;;;2.00;1.63;;;6.80;99.90;6.60;99772.00;;;;5007401;28;89595;-58
2022/09/30 00:41:46;;;;;;;3.27;2.03;;;6.70;99.90;6.60;99772.00;;;;5005178;28;88722;-58
2022/09/30 00:44:52;;;;;;;1.13;1.10;;;6.70;99.90;6.50;99773.00;;;;5002345;28;86899;-58
2022/09/30 00:47:53;;;;;;;2.00;1.83;;;6.70;99.90;6.50;99766.00;;;;5000830;28;86089;-57
2022/09/30 00:50:41;;;;;;;1.87;1.53;;;6.70;99.90;6.40;99779.00;;;;4998568;28;87589;-58
2022/09/30 00:53:18;;;;;;;1.80;1.70;;;6.60;99.90;6.40;99780.00;;;;5006391;28;88198;-58
2022/09/30 00:55:52;;;;;;;2.77;2.03;;;6.60;99.90;6.40;99784.00;;;;5007806;28;103233;-59
2022/09/30 00:58:29;;;;;;;1.63;1.40;;;6.50;99.90;6.30;99788.00;;;;4993294;28;86936;-58
2022/09/30 01:00:56;;;;;;;3.53;2.00;;;6.50;99.90;6.30;99797.00;;;;5005884;28;87702;-58
2022/09/30 01:03:22;;;;;;;1.93;1.40;;;6.50;99.90;6.30;99788.00;;;;4997526;28;88082;-58
2022/09/30 01:05:50;;;;;;;2.33;2.00;;;6.40;99.90;6.20;99796.00;;;;5014245;28;96683;-57
2022/09/30 01:08:18;;;;;;;4.07;2.67;;;6.40;99.90;6.20;99795.00;;;;5003492;28;87445;-58
2022/09/30 01:10:44;;;;;;;2.40;2.13;;;6.40;99.90;6.20;99812.00;;;;5006052;28;91169;-57
2022/09/30 01:13:11;;;;;;;3.43;2.50;;;6.40;99.90;6.20;99804.00;;;;5007310;28;116511;-58
2022/09/30 01:16:18;;;;;;;2.03;1.87;;;6.30;99.90;6.10;99803.00;;;;5005525;28;87485;-57
2022/09/30 01:18:57;;;;;;;2.67;2.13;;;6.30;99.90;6.10;99802.00;;;;5003259;28;87356;-58
2022/09/30 01:22:16;;;;;;;3.10;1.70;;;6.30;99.90;6.00;99798.00;;;;5004487;28;102082;-56
2022/09/30 01:25:14;;;;;;;1.77;1.27;;;6.20;99.90;6.00;99794.00;;;;5007842;28;109913;-58
2022/09/30 01:28:32;;;;;;;1.50;1.40;;;6.20;99.90;6.00;99799.00;;;;5009050;28;87671;-58
2022/09/30 01:31:19;;;;;;;3.43;2.30;;;6.20;99.90;6.00;99791.00;;;;4980043;28;87456;-58
2022/09/30 01:34:37;;;;;;;1.70;1.33;;;6.20;99.90;5.90;99799.00;;;;5006666;28;87762;-57
2022/09/30 01:37:24;;;;;;;2.17;1.97;;;6.10;99.90;5.90;99788.00;;;;5005070;28;88188;-58
2022/09/30 01:40:02;;;;;;;6.00;2.13;;;6.50;99.90;5.80;99795.00;;;;5003552;28;87396;-58
2022/09/30 01:42:46;;;;;;;2.50;2.10;;;6.00;99.90;5.80;99797.00;;;;5005088;28;86106;-58
2022/09/30 01:45:31;;;;;;;2.93;1.97;;;6.00;99.90;5.70;99793.00;;;;5003121;28;97543;-59
2022/09/30 01:48:22;;;;;;;2.47;1.77;;;5.90;99.90;5.60;99793.00;;;;5004944;28;104712;-59
2022/09/30 01:51:10;;;;;;;2.77;2.53;;;5.80;99.90;5.60;99800.00;;;;5007765;28;90332;-58
2022/09/30 01:53:48;;;;;;;2.23;1.50;;;5.80;99.90;5.60;99799.00;;;;5007438;28;103473;-57
2022/09/30 01:56:42;;;;;;;1.90;1.43;;;5.70;99.90;5.50;99790.00;;;;5011939;28;91929;-59
2022/09/30 01:59:17;;;;;;;2.00;1.83;;;5.70;99.90;5.50;99788.00;;;;5000612;28;88238;-58
2022/09/30 02:01:53;;;;;;;1.97;1.70;;;5.70;99.90;5.40;99797.00;;;;5032839;27;87426;-59
2022/09/30 02:04:27;;;;;;;4.27;2.83;;;5.60;99.90;5.40;99800.00;;;;5017120;28;104296;-58
2022/09/30 02:06:57;;;;;;;1.83;1.70;;;5.60;99.90;5.40;99796.00;;;;5009822;28;94330;-58
2022/09/30 02:09:35;;;;;;;2.90;1.70;;;5.60;99.90;5.40;99800.00;;;;5005876;28;87391;-57
2022/09/30 02:12:07;;;;;;;6.00;2.87;;;5.50;99.90;5.40;99803.00;;;;5010731;28;87469;-58
2022/09/30 02:14:38;;;;;;;2.83;2.27;;;5.50;99.90;5.30;99800.00;;;;5003265;28;97097;-59
2022/09/30 02:17:48;;;;;;;1.93;1.73;;;5.50;99.90;5.20;99812.00;;;;5005393;28;96058;-58
2022/09/30 02:20:27;;;;;;;3.50;2.10;;;5.50;99.90;5.30;99826.00;;;;5005941;28;111986;-59
2022/09/30 02:23:04;;;;;;;1.93;1.83;;;5.40;99.90;5.20;99833.00;;;;5034243;27;87212;-59
2022/09/30 02:25:38;;;;;;;3.03;1.30;;;5.40;99.90;5.20;99812.00;;;;5009257;28;87355;-59
2022/09/30 02:28:11;;;;;;;3.47;1.93;;;5.40;99.90;5.20;99818.00;;;;5021955;28;87804;-59
2022/09/30 02:30:44;;;;;;;2.60;2.37;;;5.30;99.90;5.20;99806.00;;;;5007287;28;92127;-59
2022/09/30 02:33:17;;;;;;;2.33;1.87;;;5.30;99.90;5.10;99809.00;;;;5011601;28;87390;-59
2022/09/30 02:35:50;;;;;;;2.73;1.60;;;5.30;99.90;5.10;99824.00;;;;5008222;28;87891;-58
2022/09/30 02:38:24;;;;;;;1.70;1.60;;;5.20;99.90;5.10;99821.00;;;;4999750;28;106959;-59
2022/09/30 02:41:01;;;;;;;2.63;1.80;;;5.20;99.90;5.00;99812.00;;;;5008266;28;108893;-59
2022/09/30 02:43:27;;;;;;;2.90;2.27;;;5.30;99.90;5.00;99818.00;;;;5002708;28;88893;-59
2022/09/30 02:46:26;;;;;;;1.67;1.57;;;5.20;99.90;4.90;99828.00;;;;5009990;28;108522;-58
2022/09/30 02:49:22;;;;;;;2.00;1.80;;;5.20;99.90;4.90;99827.00;;;;5007784;28;88501;-59
2022/09/30 02:52:10;;;;;;;4.87;2.33;;;5.10;99.90;4.90;99825.00;;;;5005444;28;87302;-59
2022/09/30 02:55:04;;;;;;;3.10;1.53;;;5.10;99.90;4.80;99830.00;;;;5011661;28;87698;-58
2022/09/30 02:57:56;;;;;;;1.93;1.40;;;5.10;99.90;4.80;99826.00;;;;5000190;28;87720;-59
2022/09/30 03:00:23;;;;;;;5.53;2.43;;;5.10;99.90;4.80;99830.00;;;;5017757;28;87463;-59
2022/09/30 03:02:53;;;;;;;2.20;1.70;;;5.00;99.90;4.80;99831.00;;;;5020700;28;88204;-58
2022/09/30 03:05:18;;;;;;;4.40;1.73;;;5.00;99.90;4.70;99835.00;;;;5002967;28;87495;-59
2022/09/30 03:07:44;;;;;;;1.80;1.67;;;5.00;99.90;4.70;99838.00;;;;5007023;28;109158;-59
2022/09/30 03:10:15;;;;;;;2.43;2.10;;;4.90;99.90;4.70;99840.00;;;;5008417;28;119543;-59
2022/09/30 03:13:18;;;;;;;2.37;1.53;;;4.90;99.90;4.60;99839.00;;;;5005953;28;108746;-60
2022/09/30 03:16:29;;;;;;;1.93;1.83;;;4.90;99.90;4.60;99840.00;;;;5007700;28;87261;-58
2022/09/30 03:19:18;;;;;;;1.83;1.73;;;4.90;99.90;4.60;99849.00;;;;4999712;28;87616;-59
2022/09/30 03:22:34;;;;;;;2.87;2.03;;;4.80;99.90;4.60;99855.00;;;;5007031;28;107112;-58
2022/09/30 03:25:39;;;;;;;2.40;1.97;;;4.80;99.90;4.60;99853.00;;;;5004279;28;87704;-57
2022/09/30 03:28:44;;;;;;;2.13;1.93;;;4.80;99.90;4.60;99850.00;;;;5007150;28;87383;-59
2022/09/30 03:31:22;;;;;;;2.83;1.77;;;4.80;99.90;4.50;99852.00;;;;4978915;28;86607;-59
2022/09/30 03:34:05;;;;;;;2.83;2.57;;;4.80;99.90;4.50;99857.00;;;;5007384;28;87322;-59
2022/09/30 03:36:44;;;;;;;3.37;2.33;;;4.70;99.90;4.50;99861.00;;;;4998487;28;88493;-59
2022/09/30 03:39:25;;;;;;;2.97;2.03;;;4.70;99.90;4.50;99869.00;;;;5002037;28;88410;-59
2022/09/30 03:42:06;;;;;;;4.03;2.10;;;4.70;99.90;4.50;99851.00;;;;5003788;28;86977;-59
2022/09/30 03:45:12;;;;;;;5.93;2.10;;;4.70;99.90;4.50;99854.00;;;;5002056;28;108668;-59
2022/09/30 03:47:46;;;;;;;2.53;2.07;;;4.70;99.90;4.50;99847.00;;;;5007530;28;89292;-60
2022/09/30 03:50:18;;;;;;;1.97;1.83;;;4.70;99.90;4.50;99856.00;;;;5018325;28;87796;-59
2022/09/30 03:52:44;;;;;;;2.40;2.20;;;4.70;99.90;4.50;99855.00;;;;5007451;28;87371;-59
2022/09/30 03:55:10;;;;;;;2.97;2.13;;;4.70;99.90;4.50;99857.00;;;;5005166;28;104130;-59
2022/09/30 03:57:36;;;;;;;2.53;2.03;;;5.00;99.90;4.50;99866.00;;;;5001668;28;117705;-59
2022/09/30 04:00:05;;;;;;;3.30;2.20;;;4.60;99.90;4.40;99851.00;;;;5000682;28;109337;-59
2022/09/30 04:02:31;;;;;;;3.07;2.77;;;4.70;99.90;4.40;99865.00;;;;5002703;28;88754;-59
2022/09/30 04:04:58;;;;;;;2.23;2.03;;;4.70;99.90;4.40;99856.00;;;;5004510;28;97488;-59
2022/09/30 04:07:24;;;;;;;5.87;2.37;;;4.60;99.90;4.30;99872.00;;;;5006157;28;89089;-58
2022/09/30 04:09:49;;;;;;;2.50;2.30;;;4.60;99.90;4.30;99871.00;;;;5009161;28;105083;-59
2022/09/30 04:12:15;;;;;;;2.33;2.13;;;4.60;99.90;4.30;99870.00;;;;5003862;28;108820;-59
2022/09/30 04:14:41;;;;;;;2.50;2.10;;;4.50;99.90;4.20;99874.00;;;;4999465;28;116768;-59
2022/09/30 04:17:06;;;;;;;4.13;2.50;;;4.40;99.90;4.20;99864.00;;;;4997588;28;116415;-59
2022/09/30 04:19:37;;;;;;;2.67;2.47;;;4.40;99.90;4.10;99872.00;;;;5000199;28;111088;-59
2022/09/30 04:22:03;;;;;;;2.50;2.30;;;4.30;99.90;4.10;99876.00;;;;5001226;28;86774;-59
2022/09/30 04:24:28;;;;;;;3.37;2.23;;;4.30;99.90;4.10;99870.00;;;;5005759;28;89011;-59
2022/09/30 04:26:54;;;;;;;4.33;2.47;;;4.30;99.90;4.00;99879.00;;;;5003006;28;115839;-62
2022/09/30 04:29:20;;;;;;;2.23;2.03;;;4.30;99.90;4.00;99885.00;;;;5006747;28;108820;-59
2022/09/30 04:31:45;;;;;;;3.40;2.60;;;4.40;99.90;4.00;99887.00;;;;5003556;28;108747;-61
2022/09/30 04:34:11;;;;;;;2.63;2.43;;;4.60;99.90;4.00;99891.00;;;;5002320;28;88032;-59
2022/09/30 04:36:38;;;;;;;2.60;2.40;;;4.60;99.90;4.00;99903.00;;;;5001464;28;88195;-60
2022/09/30 04:39:04;;;;;;;1.87;1.57;;;4.20;99.90;3.90;99903.00;;;;5001551;28;87729;-59
2022/09/30 04:41:31;;;;;;;2.10;2.00;;;4.10;99.90;3.90;99908.00;;;;5003953;28;86979;-59
2022/09/30 04:43:57;;;;;;;2.80;2.53;;;4.10;99.90;3.90;99898.00;;;;5008720;28;87438;-59
2022/09/30 04:46:22;;;;;;;3.13;2.10;;;4.20;99.90;3.80;99896.00;;;;5013235;28;87409;-58
2022/09/30 04:48:49;;;;;;;3.03;2.27;;;4.10;99.90;3.80;99891.00;;;;5006311;28;109688;-59
2022/09/30 04:51:18;;;;;;;3.67;2.27;;;4.00;99.90;3.80;99895.00;;;;5008996;28;107741;-59
2022/09/30 04:53:45;;;;;;;2.93;1.83;;;4.00;99.90;3.70;99891.00;;;;5006903;28;88536;-59
2022/09/30 04:56:11;;;;;;;3.47;1.93;;;3.90;99.90;3.70;99896.00;;;;5002750;28;88138;-60
2022/09/30 04:58:37;;;;;;;2.73;1.70;;;3.90;99.90;3.70;99894.00;;;;5003768;28;87618;-59
2022/09/30 05:01:11;;;;;;;2.23;2.10;;;3.90;99.90;3.70;99895.00;;;;5007959;28;86930;-59
2022/09/30 05:03:39;;;;;;;2.40;2.20;;;3.90;99.90;3.70;99893.00;;;;5008153;28;88517;-59
2022/09/30 05:06:05;;;;;;;2.53;1.90;;;3.90;99.90;3.70;99897.00;;;;5012929;28;88268;-59
2022/09/30 05:08:32;;;;;;;3.23;2.53;;;3.80;99.90;3.70;99902.00;;;;5002159;28;87551;-58
2022/09/30 05:11:02;;;;;;;2.53;2.30;;;3.90;99.90;3.60;99910.00;;;;5008700;28;86744;-59
2022/09/30 05:13:35;;;;;;;3.47;2.23;;;3.80;99.90;3.60;99912.00;;;;5005638;28;107428;-60
2022/09/30 05:16:01;;;;;;;2.57;1.97;;;3.80;99.90;3.60;99917.00;;;;5004580;28;88417;-60
2022/09/30 05:18:28;;;;;;;3.27;2.37;;;3.80;99.90;3.60;99920.00;;;;5004582;28;87944;-60
2022/09/30 05:20:58;;;;;;;4.40;2.50;;;3.80;99.90;3.50;99903.00;;;;5023774;28;87702;-60
2022/09/30 05:23:26;;;;;;;3.40;2.00;;;3.70;99.90;3.50;99923.00;;;;5007849;28;87390;-59
2022/09/30 05:25:52;;;;;;;2.70;2.50;;;3.80;99.90;3.50;99923.00;;;;5011047;28;87405;-58
2022/09/30 05:28:18;;;;;;;3.03;2.40;;;3.70;99.90;3.50;99924.00;;;;5009856;28;87199;-59
2022/09/30 05:30:45;;;;;;;6.87;3.53;;;3.70;99.90;3.50;99926.00;;;;5019590;28;108945;-60
2022/09/30 05:33:12;;;;;;;4.37;2.43;;;3.70;99.90;3.50;99930.00;;;;5004064;28;88734;-60
2022/09/30 05:35:40;;;;;;;2.07;1.83;;;3.70;99.90;3.50;99944.00;;;;5002609;28;109899;-58
2022/09/30 05:38:07;;;;;;;2.63;2.43;;;3.70;99.90;3.50;99944.00;;;;5005488;28;87475;-60
2022/09/30 05:40:35;;;;;;;4.17;2.30;;;3.70;99.90;3.60;99939.00;;;;5007957;28;86958;-60
2022/09/30 05:43:01;;;;;;;4.27;2.63;;;3.80;99.90;3.60;99949.00;;;;5009098;28;89621;-60
2022/09/30 05:45:26;;;;;;;12.70;5.93;;;4.30;99.90;3.70;99953.00;;;;5011224;28;117214;-60
2022/09/30 05:47:53;;;;;;;8.17;4.50;;;3.90;99.90;3.90;99966.00;;;;5011275;28;87251;-61
2022/09/30 05:50:20;;;;;;;5.23;4.37;;;4.00;99.90;4.00;99960.00;;;;5008706;28;87543;-60
2022/09/30 05:52:45;;;;;;;6.13;4.30;;;4.20;99.90;4.20;99957.00;;;;5004563;28;111107;-60
2022/09/30 05:55:12;;;;;;;6.83;4.00;;;4.30;99.90;4.40;99964.00;;;;5001883;28;115093;-57
2022/09/30 05:57:38;;;;;;;5.53;3.33;;;4.50;99.90;4.60;99966.00;;;;4999451;28;87433;-60
2022/09/30 06:00:05;;;;;;;2.87;2.47;;;4.60;99.90;4.70;99967.00;;;;5008108;28;86405;-60
2022/09/30 06:02:31;;;;;;;5.00;4.33;;;4.80;99.90;4.90;99972.00;;;;5008348;28;88585;-58
2022/09/30 06:04:56;;;;;;;4.17;3.17;;;5.00;99.90;5.10;99976.00;;;;5005990;28;92350;-57
2022/09/30 06:07:22;;;;;;;8.00;2.90;;;5.20;99.90;5.20;99987.00;;;;5007872;28;110075;-60
2022/09/30 06:09:48;;;;;;;17.07;13.87;;;5.30;99.90;5.30;99990.00;;;;4998601;28;108811;-57
2022/09/30 06:12:14;;;;;;;7.13;5.17;;;5.30;99.90;5.30;99983.00;;;;5002953;28;117078;-60
2022/09/30 06:14:40;;;;;;;5.17;3.77;;;5.40;99.90;5.40;99989.00;;;;4999610;28;88384;-59
2022/09/30 06:17:06;;;;;;;5.47;3.73;;;5.50;99.90;5.50;99989.00;;;;5001687;28;108928;-60
2022/09/30 06:19:32;;;;;;;4.47;3.37;;;5.60;99.90;5.50;99985.00;;;;5007789;28;107719;-60
2022/09/30 06:21:57;;;;;;;3.70;3.40;;;5.70;99.90;5.60;99988.00;;;;5000988;28;94155;-61
2022/09/30 06:24:23;;;;;;;3.80;3.43;;;5.70;99.90;5.70;99993.00;;;;5004035;28;116128;-60
2022/09/30 06:26:49;;;;;;;3.80;3.13;;;5.80;99.90;5.80;100004.00;;;;5007212;28;87406;-60
2022/09/30 06:29:15;;;;;;;3.87;3.10;;;5.90;99.90;6.00;99987.00;;;;5004430;28;88020;-60
2022/09/30 06:31:41;;;;;;;6.83;4.27;;;6.30;99.90;6.30;99990.00;;;;4998581;28;118905;-60
2022/09/30 06:34:09;;;;;;;15.53;13.07;;;6.30;99.90;6.50;99998.00;;;;5002512;28;118279;-60
2022/09/30 06:36:34;;;;;;;6.23;5.53;;;6.60;99.90;6.80;99992.00;;;;5002015;28;86882;-59
2022/09/30 06:39:02;;;;;;;6.03;3.97;;;6.80;99.90;7.10;99998.00;;;;5002737;28;108879;-60
2022/09/30 06:41:28;;;;;;;12.10;3.37;;;7.20;99.90;7.30;100009.00;;;;5008467;28;87724;-60
2022/09/30 06:43:55;;;;;;;6.80;4.80;;;7.30;99.90;7.40;100002.00;;;;5006600;28;88531;-58
2022/09/30 06:46:22;;;;;;;5.33;4.80;;;7.50;99.90;7.60;100006.00;;;;5002118;28;92372;-60
2022/09/30 06:48:53;;;;;;;6.57;4.70;;;7.60;99.90;7.70;100011.00;;;;5004269;28;87036;-60
2022/09/30 06:51:19;;;;;;;8.47;4.17;;;7.80;99.90;7.80;100007.00;;;;5002716;28;87591;-59
2022/09/30 06:53:48;;;;;;;5.87;3.80;;;7.80;99.90;7.80;100007.00;;;;5003607;28;88382;-60
2022/09/30 06:56:17;;;;;;;6.83;4.77;;;7.90;99.90;7.80;100016.00;;;;5001657;28;88962;-61
2022/09/30 06:58:44;;;;;;;5.23;4.57;;;8.00;99.90;7.80;100016.00;;;;4999047;28;87259;-60
2022/09/30 07:01:14;;;;;;;5.80;4.47;;;8.10;99.90;7.80;100015.00;;;;5005198;28;87081;-59
2022/09/30 07:03:44;;;;;;;4.30;3.70;;;8.20;99.90;7.70;100020.00;;;;5025178;27;88316;-60
2022/09/30 07:06:13;;;;;;;7.43;4.33;;;8.20;99.90;7.60;100017.00;;;;5005117;28;87029;-60
2022/09/30 07:08:39;;;;;;;4.37;3.43;;;7.80;99.90;7.60;100018.00;;;;5000026;28;87283;-60
2022/09/30 07:11:15;;;;;;;4.73;3.17;;;7.80;99.90;7.60;100009.00;;;;4999332;28;88107;-60
2022/09/30 07:13:46;;;;;;;4.00;3.37;;;7.70;99.90;7.50;100011.00;;;;5001388;28;88410;-60
2022/09/30 07:16:17;;;;;;;3.40;3.03;;;7.60;99.90;7.50;100019.00;;;;5006692;28;87433;-60
2022/09/30 07:18:44;;;;;;;4.60;4.00;;;7.60;99.90;7.60;100035.00;;;;5021670;27;87546;-61
2022/09/30 07:21:14;;;;;;;4.57;3.93;;;7.80;99.90;7.50;100042.00;;;;4999613;28;89401;-61
2022/09/30 07:23:47;;;;;;;5.13;4.23;;;7.60;99.90;7.60;100044.00;;;;5005221;28;88411;-60
2022/09/30 07:26:16;;;;;;;6.00;4.53;;;7.60;99.90;7.60;100056.00;;;;5005179;28;88326;-60
2022/09/30 07:28:42;;;;;;;3.93;3.27;;;7.70;99.90;7.70;100050.00;;;;5003087;28;87004;-60
2022/09/30 07:31:17;;;;;;;3.53;3.23;;;8.10;99.90;7.80;100049.00;;;;5001434;28;87836;-60
2022/09/30 07:33:45;;;;;;;4.43;4.00;;;7.90;99.90;7.90;100047.00;;;;4996741;28;88332;-60
2022/09/30 07:36:12;;;;;;;9.60;4.00;;;8.10;99.90;8.10;100043.00;;;;5003113;28;87388;-60
2022/09/30 07:38:40;;;;;;;2.80;2.60;;;8.10;99.90;8.20;100055.00;;;;5008544;28;86505;-60
2022/09/30 07:41:11;;;;;;;6.17;3.97;;;8.20;99.90;8.30;100063.00;;;;5009159;28;89057;-60
2022/09/30 07:43:39;;;;;;;4.13;3.73;;;8.30;99.90;8.40;100065.00;;;;4998239;28;88693;-60
2022/09/30 07:46:11;;;;;;;6.30;4.87;;;8.40;99.90;8.60;100074.00;;;;5001797;28;88920;-60
2022/09/30 07:48:43;;;;;;;8.13;5.30;;;8.60;99.90;8.70;100070.00;;;;5002427;28;87603;-59
2022/09/30 07:51:17;;;;;;;5.60;4.17;;;8.70;99.90;9.00;100077.00;;;;5006595;28;88510;-60
2022/09/30 07:53:46;;;;;;;7.87;4.00;;;8.90;99.90;9.30;100084.00;;;;5005021;28;88262;-58
2022/09/30 07:56:14;;;;;;;6.30;4.20;;;9.30;99.90;9.60;100095.00;;;;5000108;28;87783;-60
2022/09/30 07:58:40;;;;;;;8.07;4.93;;;9.50;99.90;9.80;100096.00;;;;5005579;28;87431;-60
2022/09/30 08:01:06;;;;;;;5.00;4.10;;;9.70;99.90;9.90;100092.00;;;;5010822;28;87572;-60
2022/09/30 08:03:35;;;;;;;4.33;3.93;;;9.90;99.90;10.10;100094.00;;;;5007470;28;87271;-60
2022/09/30 08:06:14;;;;;;;5.07;3.83;;;10.00;99.90;10.20;100097.00;;;;5000493;28;87715;-60
2022/09/30 08:08:42;;;;;;;6.07;4.00;;;10.20;99.90;10.50;100097.00;;;;4999146;28;87439;-59
2022/09/30 08:11:08;;;;;;;6.20;4.40;;;10.40;99.90;10.80;100091.00;;;;5001326;28;89932;-60
2022/09/30 08:13:34;;;;;;;8.87;4.33;;;10.70;99.90;11.00;100107.00;;;;5002009;28;89296;-60
2022/09/30 08:16:00;;;;;;;7.40;4.43;;;10.90;99.90;11.20;100098.00;;;;5008242;28;87506;-60
2022/09/30 08:18:26;;;;;;;5.47;3.87;;;11.10;99.90;11.50;100111.00;;;;5002452;28;87688;-60
2022/09/30 08:20:52;;;;;;;6.17;4.33;;;11.40;99.90;11.90;100105.00;;;;5010678;28;88536;-60
2022/09/30 08:23:18;;;;;;;6.70;4.10;;;11.70;99.90;12.30;100114.00;;;;5008636;28;116850;-60
2022/09/30 08:25:44;;;;;;;11.47;8.03;;;12.20;99.90;12.80;100110.00;;;;5004805;28;100698;-60
2022/09/30 08:28:10;;;;;;;9.60;7.17;;;12.50;99.90;13.20;100119.00;;;;5003024;28;104094;-60
2022/09/30 08:30:37;;;;;;;7.10;4.37;;;13.00;99.90;13.70;100119.00;;;;5000071;28;111745;-60
2022/09/30 08:33:03;;;;;;;6.40;3.93;;;13.50;99.90;14.20;100124.00;;;;5004448;28;87866;-59
2022/09/30 08:35:29;;;;;;;6.10;3.43;;;13.90;99.90;14.70;100128.00;;;;5007327;28;100502;-60
2022/09/30 08:37:54;;;;;;;5.43;3.53;;;14.40;99.90;15.20;100133.00;;;;5030488;27;106719;-60
2022/09/30 08:40:28;;;;;;;5.13;3.70;;;14.90;99.90;15.70;100134.00;;;;5003494;28;118041;-60
2022/09/30 08:43:26;;;;;;;5.13;3.10;;;15.40;99.90;16.20;100136.00;;;;5004337;28;111798;-60
2022/09/30 08:46:12;;;;;;;3.65;2.45;;;15.90;99.90;16.60;100142.00;;;;5005862;28;97919;-60
2022/09/30 08:49:05;;;;;;;4.25;3.22;;;16.40;99.90;17.10;100139.00;;;;5006024;28;87433;-60
2022/09/30 08:51:44;;;;;;;5.85;3.45;;;16.90;99.90;17.60;100147.00;;;;5020383;27;110952;-60
2022/09/30 08:54:15;;;;;;;3.65;3.05;;;17.40;99.90;18.10;100150.00;;;;5006854;28;88079;-60
2022/09/30 08:56:43;;;;;;;4.13;3.00;;;17.80;99.90;18.60;100155.00;;;;5010954;28;87778;-59
2022/09/30 08:59:34;;;;;;;4.28;3.47;;;18.30;99.90;19.20;100145.00;;;;5014543;28;103641;-60
2022/09/30 09:02:19;;;;;;;3.15;2.63;;;18.90;99.90;19.70;100148.00;;;;5007156;28;89046;-60
2022/09/30 09:04:47;;;;;;;4.97;3.40;;;19.40;99.90;19.90;100147.00;;;;5001186;28;89161;-60
2022/09/30 09:07:44;;;;;;;3.20;2.17;;;19.70;97.90;20.00;100150.00;;;;5003907;28;105846;-58
2022/09/30 09:10:50;;;;;;;6.38;3.15;;;19.80;95.60;19.90;100150.00;;;;5002837;28;89814;-59
2022/09/30 09:13:41;;;;;;;4.97;2.67;;;19.80;93.90;19.90;100158.00;;;;5025377;27;88768;-60
2022/09/30 09:16:33;;;;;;;5.75;3.47;;;19.70;92.60;19.90;100146.00;;;;4995190;28;107505;-60
2022/09/30 09:19:16;;;;;;;2.95;2.47;;;19.70;91.80;20.00;100140.00;;;;5006839;28;95143;-58
2022/09/30 09:22:01;;;;;;;3.88;2.75;;;19.80;91.70;20.10;100153.00;;;;5007809;28;86632;-60
2022/09/30 09:24:36;;;;;;;4.90;3.45;;;20.00;91.40;20.30;100155.00;;;;5006979;28;88462;-60
2022/09/30 09:27:29;;;;;;;6.97;2.30;;;20.00;90.30;20.40;100151.00;;;;5000126;28;88230;-59
2022/09/30 09:30:06;;;;;;;11.18;7.00;;;20.20;88.50;20.60;100157.00;;;;4999497;28;88590;-60
2022/09/30 09:32:34;;;;;;;2.90;2.33;;;20.30;85.20;20.60;100147.00;;;;5006834;28;87757;-60
2022/09/30 09:35:15;;;;;;;3.60;2.80;;;20.40;84.30;20.80;100160.00;;;;5013335;28;88521;-60
2022/09/30 09:38:23;;;;;;;2.70;1.88;;;20.50;83.40;21.10;100153.00;;;;5007632;28;88223;-60
2022/09/30 09:41:20;;;;;;;3.80;2.55;;;20.80;81.10;21.50;100153.00;;;;5021476;27;87094;-58
2022/09/30 09:44:18;;;;;;;3.58;2.50;;;21.10;77.50;21.70;100156.00;;;;5004154;28;87501;-59
2022/09/30 09:46:56;;;;;;;2.30;2.03;;;21.30;74.00;21.90;100163.00;;;;5009671;28;88660;-59
2022/09/30 09:49:37;;;;;;;4.60;2.80;;;21.40;74.30;22.20;100159.00;;;;5001623;28;87164;-60
2022/09/30 09:52:11;;;;;;;4.38;2.60;;;21.70;74.90;22.60;100160.00;;;;5007504;28;87423;-60
2022/09/30 09:54:49;;;;;;;2.90;2.53;;;22.10;74.30;23.00;100157.00;;;;5006584;28;109107;-60
2022/09/30 09:57:23;;;;;;;2.95;1.98;;;22.50;72.90;23.30;100154.00;;;;5011366;28;88236;-60
2022/09/30 10:03:05;;;;;;;3.45;1.60;;;23.20;69.90;24.10;100150.00;;;;4998077;28;86877;-60
2022/09/30 10:05:39;;;;;;;2.85;1.77;;;23.60;68.40;24.40;100154.00;;;;5006137;28;87576;-60
2022/09/30 10:08:18;;;;;;;2.28;1.50;;;23.90;63.80;24.40;100141.00;;;;5007186;28;87542;-61
2022/09/30 10:10:54;;;;;;;1.60;1.50;;;24.00;61.20;24.30;100138.00;;;;5008868;28;87495;-61
2022/09/30 10:13:45;;;;;;;1.92;1.70;;;24.00;56.30;24.00;100155.00;;;;4996667;28;87501;-60
2022/09/30 10:16:30;;;;;;;3.45;1.83;;;23.70;55.80;23.60;100160.00;;;;5009222;28;86318;-60
2022/09/30 10:18:57;;;;;;;2.25;1.40;;;23.40;55.90;23.40;100160.00;;;;5009188;28;106322;-61
2022/09/30 10:21:27;;;;;;;1.42;1.13;;;23.10;56.90;23.40;100154.00;;;;5000205;28;104701;-59
2022/09/30 10:23:53;;;;;;;1.25;1.10;;;23.10;57.70;23.60;100159.00;;;;4999006;28;88265;-61
2022/09/30 10:26:23;;;;;;;2.13;1.58;;;23.20;57.90;23.70;100144.00;;;;5001323;28;87889;-57
2022/09/30 10:28:57;;;;;;;3.35;2.70;;;23.30;57.00;23.70;100148.00;;;;5004562;28;88503;-58
2022/09/30 10:31:34;;;;;;;1.85;1.63;;;23.30;56.30;23.80;100146.00;;;;5009300;28;87582;-60
2022/09/30 10:34:09;;;;;;;1.20;1.10;;;23.30;56.60;24.00;100151.00;;;;5006815;28;103670;-59
2022/09/30 10:36:38;;;;;;;3.55;1.52;;;23.50;57.00;24.30;100147.00;;;;5005698;28;93700;-57
2022/09/30 10:39:23;;;;;;;2.60;2.03;;;23.80;56.60;24.70;100141.00;;;;5030936;27;87940;-58
2022/09/30 10:41:51;;;;;;;3.33;1.35;;;24.10;56.40;25.10;100162.00;;;;5007617;28;88280;-60
2022/09/30 10:44:22;;;;;;;3.90;2.53;;;24.40;56.30;25.40;100153.00;;;;4999521;28;98873;-60
2022/09/30 10:46:52;;;;;;;3.05;1.70;;;24.80;55.40;25.80;100156.00;;;;4998396;28;109160;-61
2022/09/30 10:49:47;;;;;;;2.80;1.52;;;25.20;55.30;26.30;100154.00;;;;4999397;28;89849;-60
2022/09/30 10:52:23;;;;;;;4.88;2.65;;;25.50;54.70;26.50;100149.00;;;;5004591;28;87577;-60
2022/09/30 10:54:58;;;;;;;2.42;1.52;;;25.80;52.60;26.50;100153.00;;;;5013037;28;87625;-61
2022/09/30 10:57:32;;;;;;;2.45;1.67;;;25.90;51.60;26.60;100157.00;;;;5002708;28;103086;-60
2022/09/30 11:00:13;;;;;;;1.35;1.25;;;26.00;49.60;26.20;100155.00;;;;4999235;28;88142;-60
2022/09/30 11:02:42;;;;;;;1.42;1.17;;;25.80;47.40;25.80;100155.00;;;;5005022;28;110058;-60
2022/09/30 11:05:27;;;;;;;0.93;0.88;;;25.50;48.40;25.70;100148.00;;;;5019239;27;87613;-59
2022/09/30 11:08:24;;;;;;;1.10;0.75;;;25.30;47.20;25.40;100153.00;;;;5006810;28;86175;-61
2022/09/30 11:10:58;;;;;;;0.93;0.80;;;25.00;46.90;25.10;100143.00;;;;5004413;28;87533;-60
2022/09/30 11:13:56;;;;;;;1.33;0.75;;;24.70;47.00;24.70;100144.00;;;;5018780;27;87181;-60
2022/09/30 11:17:01;;;;;;;1.55;0.98;;;24.40;45.20;24.50;100149.00;;;;5003093;28;88408;-59
2022/09/30 11:19:57;;;;;;;1.23;1.13;;;24.10;46.70;24.70;100149.00;;;;5001035;28;87686;-60
2022/09/30 11:22:47;;;;;;;7.72;0.98;;;24.20;46.80;24.90;100169.00;;;;5003560;28;109210;-60
2022/09/30 11:25:21;;;;;;;1.00;0.75;;;24.40;47.60;25.20;100155.00;;;;5000966;28;110918;-60
2022/09/30 11:28:08;;;;;;;1.10;0.80;;;24.60;47.20;25.40;100147.00;;;;5006173;28;87805;-60
2022/09/30 11:31:22;;;;;;;1.83;0.80;;;24.80;46.40;25.40;100153.00;;;;5008445;28;87434;-59
2022/09/30 11:34:07;;;;;;;0.65;0.60;;;24.90;45.30;25.40;100149.00;;;;4980176;28;87563;-60
2022/09/30 11:36:55;;;;;;;1.67;0.98;;;24.90;44.90;25.50;100143.00;;;;5005383;28;87801;-60
2022/09/30 11:40:03;;;;;;;1.08;1.00;;;25.00;44.60;25.30;100143.00;;;;5001140;28;95478;-60